Time;durP1;ratioP1;P1;durP2;ratioP2;P2;SDS_P1;SDS_P2;PMS_P1;PMS_P2;Temp;Humidity;BMP_temperature;BMP_pressure;BME280_temperature;BME280_humidity;BME280_pressure;Samples;Min_cycle;Max_cycle;Signal;HPM_P1;HPM_P2
2022/01/25 00:31:13;;;;;;;27.02;9.73;;;;;;;-7.21;79.44;100841.19;4895683;29;20198;-82
2022/01/25 00:33:41;;;;;;;24.05;8.25;;;;;;;-8.37;78.51;100606.63;4894738;29;20722;-82
2022/01/25 00:36:09;;;;;;;21.42;7.57;;;;;;;-6.84;78.66;100901.13;4896322;29;20189;-83
2022/01/25 00:38:34;;;;;;;13.43;4.80;;;;;;;-7.20;78.17;100815.88;4895998;29;20265;-83
2022/01/25 00:41:00;;;;;;;24.73;7.93;;;;;;;-7.33;77.95;100816.50;4894585;29;20593;-82
2022/01/25 00:43:27;;;;;;;24.07;10.30;;;;;;;-8.42;77.95;100610.03;4895280;29;20701;-83
2022/01/25 00:45:56;;;;;;;22.00;7.10;;;;;;;-7.87;77.38;100706.72;4898419;29;20166;-83
2022/01/25 00:48:32;;;;;;;16.30;6.18;;;;;;;-9.08;77.55;100494.72;4907273;29;20216;-82
2022/01/25 00:51:15;;;;;;;15.93;6.65;;;;;;;-6.69;76.61;100893.34;4936327;29;20167;-83
2022/01/25 00:54:01;;;;;;;16.15;6.97;;;;;;;-8.33;76.39;100589.19;4935983;29;21060;-82
2022/01/25 00:56:36;;;;;;;17.88;7.25;;;;;;;-7.33;75.87;100763.28;4935820;29;20198;-83
2022/01/25 00:59:04;;;;;;;18.17;6.63;;;;;;;-6.79;75.64;100863.28;4935944;29;20175;-83
2022/01/25 01:01:30;;;;;;;14.32;6.03;;;;;;;-6.56;74.80;100902.38;4936053;29;20324;-81
2022/01/25 01:03:56;;;;;;;21.23;9.27;;;;;;;-9.19;74.54;100426.19;4935905;29;20160;-82
2022/01/25 01:06:22;;;;;;;17.10;6.45;;;;;;;-6.49;75.28;100887.72;4935981;29;20247;-82
2022/01/25 01:08:48;;;;;;;19.10;7.43;;;;;;;-6.60;75.13;100886.28;5008169;28;20215;-82
2022/01/25 01:11:22;;;;;;;24.02;8.50;;;;;;;-7.74;75.25;100702.78;5012953;28;20560;-82
2022/01/25 01:45:38;;;;;;;22.50;8.82;;;;;;;-7.03;72.12;100768.94;5012489;28;20179;-82
2022/01/25 01:48:07;;;;;;;21.60;8.05;;;;;;;-6.41;71.03;100846.16;5012255;28;20215;-83
2022/01/25 01:50:35;;;;;;;23.65;9.52;;;;;;;-7.37;71.97;100706.13;5012350;28;20213;-82
2022/01/25 01:53:03;;;;;;;26.13;10.40;;;;;;;-6.76;71.81;100829.22;5012805;28;20323;-83
2022/01/25 01:55:30;;;;;;;17.02;5.55;;;;;;;-8.68;72.57;100495.22;5013149;28;20175;-83
2022/01/25 01:57:57;;;;;;;26.60;10.05;;;;;;;-6.89;73.50;100830.72;5014063;28;20263;-84
2022/01/25 02:00:30;;;;;;;27.60;10.48;;;;;;;-8.73;74.21;100525.56;5014249;28;20199;-83
2022/01/25 02:02:56;;;;;;;19.83;6.95;;;;;;;-6.79;74.50;100843.56;5012884;28;20169;-83
2022/01/25 02:05:21;;;;;;;23.20;10.23;;;;;;;-9.29;75.49;100397.78;5013293;28;20165;-83
2022/01/25 02:07:47;;;;;;;28.97;10.83;;;;;;;-7.72;75.79;100727.56;5013841;28;20177;-83
2022/01/25 02:10:12;;;;;;;26.67;10.17;;;;;;;-7.07;77.75;100844.59;5013826;28;20177;-82
2022/01/25 02:12:38;;;;;;;26.23;9.77;;;;;;;-8.47;77.31;100606.06;5013653;28;20535;-83
2022/01/25 02:15:04;;;;;;;18.27;7.03;;;;;;;-7.07;77.70;100845.50;5014187;28;20168;-82
2022/01/25 02:23:33;;;;;;;25.10;9.43;;;;;;;-7.26;76.53;100807.72;4972717;28;20191;-83
2022/01/25 02:26:01;;;;;;;20.25;7.40;;;;;;;-7.20;77.35;100834.69;4914903;29;20227;-83
2022/01/25 02:28:36;;;;;;;20.60;7.25;;;;;;;-7.21;77.85;100837.84;4914918;29;20219;-82
2022/01/25 02:31:03;;;;;;;17.73;6.72;;;;;;;-7.60;78.89;100783.28;4914455;29;20198;-82
2022/01/25 02:33:29;;;;;;;22.65;8.73;;;;;;;-7.30;78.43;100839.94;4900111;29;20223;-82
2022/01/25 02:35:56;;;;;;;21.98;8.30;;;;;;;-7.21;78.74;100840.28;4915796;29;20728;-82
2022/01/25 02:38:28;;;;;;;25.27;8.93;;;;;;;-8.03;78.08;100679.22;4915168;29;20255;-83
2022/01/25 02:40:55;;;;;;;23.55;9.45;;;;;;;-7.70;78.65;100721.28;4914824;29;20716;-82
2022/01/25 02:43:21;;;;;;;25.77;9.73;;;;;;;-7.18;79.13;100828.41;4915143;29;20277;-82
2022/01/25 02:46:04;;;;;;;20.33;8.32;;;;;;;-8.08;79.06;100670.34;4915107;29;20686;-82
2022/01/25 02:48:30;;;;;;;25.38;9.43;;;;;;;-8.88;78.31;100538.25;4915089;29;20680;-83
2022/01/25 02:51:01;;;;;;;22.80;9.03;;;;;;;-7.15;79.46;100828.81;4899563;29;20281;-83
2022/01/25 02:53:28;;;;;;;22.08;9.10;;;;;;;-7.23;77.79;100824.44;4915213;29;20359;-83
2022/01/25 02:55:53;;;;;;;15.63;6.40;;;;;;;-7.70;79.33;100760.59;4914477;29;20551;-82
2022/01/25 02:58:19;;;;;;;15.47;4.53;;;;;;;-7.29;78.57;100817.13;4914415;29;20184;-83
2022/01/25 03:00:44;;;;;;;16.87;6.57;;;;;;;-7.55;78.94;100821.69;4949671;29;20196;-82
2022/01/25 03:03:10;;;;;;;13.47;5.10;;;;;;;-9.72;78.55;100448.28;5003481;28;20608;-83
2022/01/25 03:05:35;;;;;;;11.93;3.93;;;;;;;-9.23;79.26;100556.38;5013142;28;20660;-83
2022/01/25 03:08:01;;;;;;;13.50;5.40;;;;;;;-11.95;79.36;100065.91;5013518;28;20196;-82
2022/01/25 03:10:35;;;;;;;9.33;3.33;;;;;;;-7.97;79.44;100726.72;5013451;28;20206;-83
2022/01/25 03:13:00;;;;;;;13.23;5.03;;;;;;;-7.60;78.81;100802.94;5013388;28;20164;-85
2022/01/25 03:15:42;;;;;;;13.30;5.03;;;;;;;-8.42;78.44;100651.75;5012981;28;20159;-83
2022/01/25 03:18:14;;;;;;;13.60;4.90;;;;;;;-7.65;78.92;100803.91;5012865;28;20186;-83
2022/01/25 03:20:52;;;;;;;15.27;4.88;;;;;;;-8.94;78.95;100584.00;5013209;28;20175;-82
2022/01/25 03:23:19;;;;;;;11.90;4.63;;;;;;;-7.70;79.06;100795.00;5011477;28;20670;-83
2022/01/25 03:25:47;;;;;;;14.80;5.13;;;;;;;-7.70;79.85;100785.19;5012708;28;20160;-83
2022/01/25 03:28:14;;;;;;;16.58;5.65;;;;;;;-8.34;79.47;100683.16;5011584;28;20259;-83
2022/01/25 03:30:39;;;;;;;18.63;6.88;;;;;;;-9.32;79.13;100491.41;5012695;28;20175;-82
2022/01/25 03:33:05;;;;;;;15.57;4.67;;;;;;;-8.04;79.00;100706.91;5012885;28;20168;-82
2022/01/25 03:35:30;;;;;;;15.53;5.10;;;;;;;-9.46;78.37;100434.72;5012422;28;20179;-83
2022/01/25 03:37:55;;;;;;;18.10;6.80;;;;;;;-9.28;78.23;100466.63;5012325;28;20237;-82
2022/01/25 03:40:21;;;;;;;10.00;4.43;;;;;;;-12.16;78.09;99956.44;5012557;28;20167;-82
2022/01/25 03:42:48;;;;;;;18.00;7.00;;;;;;;-7.56;77.64;100736.31;5012229;28;20686;-83
2022/01/25 03:45:19;;;;;;;19.08;5.82;;;;;;;-7.48;77.17;100741.59;5013932;28;20172;-82
2022/01/25 03:47:58;;;;;;;18.67;6.60;;;;;;;-9.84;76.79;100315.94;5012438;28;20164;-82
2022/01/25 03:50:24;;;;;;;17.08;6.03;;;;;;;-10.32;76.94;100236.78;5016956;28;20698;-82
2022/01/25 03:52:50;;;;;;;17.52;6.30;;;;;;;-9.82;75.74;100307.25;5033406;28;20171;-82
2022/01/25 03:55:15;;;;;;;14.17;4.73;;;;;;;-7.46;76.39;100720.53;5036471;28;20544;-83
2022/01/25 03:57:41;;;;;;;14.33;4.77;;;;;;;-9.05;75.61;100440.31;5012624;28;20222;-83
2022/01/25 04:00:07;;;;;;;14.63;5.90;;;;;;;-8.91;74.88;100457.78;5012690;28;20175;-83
2022/01/25 04:02:35;;;;;;;13.68;4.82;;;;;;;-7.18;74.13;100720.19;5011305;28;20628;-83
2022/01/25 04:05:01;;;;;;;11.35;4.47;;;;;;;-9.53;72.33;100291.59;5012868;28;20172;-82
2022/01/25 04:07:44;;;;;;;14.93;5.90;;;;;;;-9.01;70.63;100320.75;5012959;28;20561;-82
2022/01/25 04:10:09;;;;;;;19.60;7.25;;;;;;;-6.72;71.57;100707.41;5014653;28;20339;-83
2022/01/25 04:12:35;;;;;;;9.37;3.60;;;;;;;-9.75;70.67;100180.91;5013497;28;20646;-83
2022/01/25 04:15:02;;;;;;;12.13;4.97;;;;;;;-6.86;72.06;100707.16;5014702;28;20600;-82
2022/01/25 04:17:27;;;;;;;14.90;5.10;;;;;;;-9.83;71.56;100191.25;5013024;28;20563;-83
2022/01/25 04:25:21;;;;;;;15.82;6.10;;;;;;;-7.94;71.51;100520.75;5017615;28;20200;-83
2022/01/25 04:27:46;;;;;;;12.70;5.30;;;;;;;-6.82;70.84;100700.41;5017683;28;20506;-82
2022/01/25 04:30:12;;;;;;;31.30;11.77;;;;;;;-6.89;71.25;100692.00;5018600;28;20231;-83
2022/01/25 04:32:48;;;;;;;14.90;6.33;;;;;;;-7.26;70.40;100628.16;5016884;28;20215;-83
2022/01/25 04:54:38;;;;;;;17.95;6.47;;;;;;;-6.94;71.56;100701.25;5016243;28;20319;-83
2022/01/25 05:02:31;;;;;;;28.88;8.25;;;;;;;-8.14;69.57;100482.88;5015098;28;20593;-83
2022/01/25 05:05:24;;;;;;;18.63;6.43;;;;;;;-6.81;68.78;100680.00;5016092;28;20683;-83
2022/01/25 05:10:23;;;;;;;10.13;4.05;;;;;;;-6.74;68.39;100682.59;5015757;28;20222;-83
2022/01/25 05:13:07;;;;;;;12.33;5.83;;;;;;;-7.08;68.40;100653.38;5015133;28;20170;-82
2022/01/25 05:16:02;;;;;;;12.35;5.72;;;;;;;-6.80;68.31;100684.25;5015430;28;20412;-83
2022/01/25 05:18:36;;;;;;;12.13;5.07;;;;;;;-6.94;69.11;100697.91;5014633;28;20180;-82
2022/01/25 05:23:46;;;;;;;23.55;9.70;;;;;;;-7.22;69.65;100631.88;5016041;28;20182;-83
2022/01/25 05:26:11;;;;;;;49.47;17.17;;;;;;;-8.00;69.08;100462.59;5014647;28;20161;-83
2022/01/25 05:28:37;;;;;;;54.47;18.83;;;;;;;-6.63;69.90;100693.84;5014919;28;20627;-83
2022/01/25 05:31:02;;;;;;;56.50;21.30;;;;;;;-7.51;70.11;100553.44;5014002;28;20170;-82
2022/01/25 05:33:28;;;;;;;45.73;18.90;;;;;;;-6.65;69.79;100690.31;5014464;28;20227;-82
2022/01/25 05:35:53;;;;;;;40.60;15.43;;;;;;;-7.99;70.40;100474.16;5015653;28;20166;-82
2022/01/25 05:38:18;;;;;;;45.13;18.57;;;;;;;-7.97;71.21;100481.06;5015038;28;20663;-83
2022/01/25 05:48:11;;;;;;;93.70;28.35;;;;;;;-7.77;70.79;100543.53;5014544;28;20810;-83
2022/01/25 05:50:36;;;;;;;80.72;20.63;;;;;;;-7.88;70.47;100558.41;5014268;28;20257;-83
2022/01/25 05:53:02;;;;;;;85.43;19.77;;;;;;;-6.94;70.50;100706.19;5014377;28;20170;-83
2022/01/25 05:55:27;;;;;;;33.80;11.13;;;;;;;-7.70;70.58;100584.56;5014387;28;20554;-84
2022/01/25 05:57:53;;;;;;;13.83;6.47;;;;;;;-7.80;70.89;100569.28;5013086;28;20508;-83
2022/01/25 06:00:18;;;;;;;9.30;4.17;;;;;;;-8.93;68.91;100362.59;5012661;28;20196;-84
2022/01/25 06:02:45;;;;;;;14.13;4.30;;;;;;;-6.66;67.20;100710.66;5014678;28;20651;-83
2022/01/25 06:05:11;;;;;;;14.25;5.57;;;;;;;-7.42;65.78;100559.56;5014255;28;20157;-83
2022/01/25 06:07:37;;;;;;;10.57;4.60;;;;;;;-7.35;65.57;100552.28;5012449;28;20209;-81
2022/01/25 06:10:03;;;;;;;15.87;6.10;;;;;;;-6.44;64.28;100706.94;5016254;28;20315;-83
2022/01/25 06:12:29;;;;;;;13.02;6.00;;;;;;;-8.04;63.81;100392.50;5014352;28;20456;-83
2022/01/25 06:14:54;;;;;;;19.90;7.43;;;;;;;-6.81;62.96;100593.88;5004534;28;20236;-84
2022/01/25 06:17:20;;;;;;;14.13;6.33;;;;;;;-6.14;62.41;100698.59;5016388;28;20198;-82
2022/01/25 06:19:45;;;;;;;15.33;6.33;;;;;;;-8.80;62.02;100199.19;5015350;28;20168;-84
2022/01/25 06:22:11;;;;;;;22.07;8.47;;;;;;;-8.26;61.16;100284.81;5015217;28;20179;-83
2022/01/25 06:24:36;;;;;;;24.00;9.27;;;;;;;-5.83;60.35;100691.91;5014187;28;20666;-82
2022/01/25 06:27:02;;;;;;;16.20;4.07;;;;;;;-8.14;60.15;100260.97;5014753;28;20417;-82
2022/01/25 06:29:27;;;;;;;14.97;6.20;;;;;;;-8.90;59.02;100126.00;5013795;28;20261;-82
2022/01/25 06:31:53;;;;;;;10.33;5.20;;;;;;;-9.11;59.07;100102.03;5014083;28;20233;-84
2022/01/25 06:34:18;;;;;;;20.77;7.60;;;;;;;-8.03;59.81;100285.34;5013528;28;20717;-84
2022/01/25 06:36:46;;;;;;;46.70;14.93;;;;;;;-8.33;60.34;100220.94;5012678;28;20211;-82
2022/01/25 06:39:11;;;;;;;27.60;12.90;;;;;;;-6.34;60.79;100532.56;5014068;28;20242;-83
2022/01/25 06:41:38;;;;;;;28.93;11.90;;;;;;;-5.33;61.09;100685.97;5013101;28;20260;-83
2022/01/25 06:44:04;;;;;;;26.05;8.30;;;;;;;-7.13;61.56;100389.56;5013389;28;20215;-83
2022/01/25 06:46:29;;;;;;;29.73;9.35;;;;;;;-7.41;61.87;100303.16;5013513;28;20910;-86
2022/01/25 06:48:55;;;;;;;13.57;6.27;;;;;;;-5.46;62.62;100704.81;5013464;28;20263;-83
2022/01/25 06:51:20;;;;;;;13.67;6.57;;;;;;;-5.38;62.41;100682.88;5014065;28;20168;-83
2022/01/25 06:53:46;;;;;;;14.67;6.33;;;;;;;-6.82;61.58;100414.03;5013109;28;20192;-83
2022/01/25 06:56:11;;;;;;;16.10;7.30;;;;;;;-5.63;61.09;100574.47;5013309;28;20717;-83
2022/01/25 06:58:36;;;;;;;23.17;8.07;;;;;;;-5.35;60.08;100615.78;5012956;28;20625;-83
2022/01/25 07:01:02;;;;;;;17.83;7.13;;;;;;;-9.00;60.17;99969.44;5013282;28;20222;-82
2022/01/25 07:03:28;;;;;;;11.80;5.30;;;;;;;-5.03;60.70;100670.03;5013287;28;20177;-83
2022/01/25 07:05:53;;;;;;;14.60;6.67;;;;;;;-6.66;60.21;100398.91;5011769;28;20419;-82
2022/01/25 07:08:19;;;;;;;29.93;10.73;;;;;;;-4.82;60.88;100684.09;5011748;28;20216;-83
2022/01/25 07:10:44;;;;;;;39.93;16.00;;;;;;;-5.77;60.57;100505.31;5013350;28;20251;-83
2022/01/25 07:13:10;;;;;;;18.97;8.20;;;;;;;-6.13;60.30;100409.63;5011252;28;20641;-83
2022/01/25 07:15:35;;;;;;;25.03;9.30;;;;;;;-4.73;60.19;100637.44;5012943;28;20695;-84
2022/01/25 07:18:01;;;;;;;19.37;8.13;;;;;;;-4.60;58.87;100626.75;5012952;28;20672;-83
2022/01/25 07:20:27;;;;;;;19.90;8.18;;;;;;;-6.30;58.49;100293.34;5013032;28;20205;-84
2022/01/25 07:22:53;;;;;;;20.90;9.10;;;;;;;-4.99;58.54;100491.06;5011631;28;20574;-83
2022/01/25 07:25:19;;;;;;;14.53;7.23;;;;;;;-5.89;58.13;100341.16;5013088;28;20224;-83
2022/01/25 07:27:44;;;;;;;24.52;9.57;;;;;;;-6.76;58.06;100161.31;5009860;28;20240;-83
2022/01/25 07:30:10;;;;;;;19.73;9.60;;;;;;;-4.66;57.51;100496.66;5006865;28;20233;-82
2022/01/25 07:32:36;;;;;;;17.37;8.33;;;;;;;-5.92;57.08;100325.97;5029818;28;20580;-82
2022/01/25 07:35:01;;;;;;;22.67;10.40;;;;;;;-4.49;57.16;100488.09;5031617;28;20235;-83
2022/01/25 07:37:27;;;;;;;22.10;8.87;;;;;;;-3.78;56.92;100651.50;5031620;28;20227;-82
2022/01/25 07:39:52;;;;;;;18.13;8.13;;;;;;;-4.11;56.52;100569.25;5031533;28;20174;-83
2022/01/25 07:42:18;;;;;;;20.00;7.27;;;;;;;-7.22;56.45;100022.84;5031625;28;20197;-83
2022/01/25 07:44:44;;;;;;;23.00;9.77;;;;;;;-4.70;56.91;100459.97;5031734;28;20166;-83
2022/01/25 07:47:11;;;;;;;22.02;9.13;;;;;;;-3.50;57.45;100656.53;5031168;28;20235;-83
2022/01/25 07:49:36;;;;;;;31.25;13.48;;;;;;;-3.22;57.61;100676.38;5031908;28;20264;-83
2022/01/25 07:52:03;;;;;;;17.90;8.40;;;;;;;-3.60;56.18;100585.25;5019807;28;20260;-83
2022/01/25 07:54:29;;;;;;;20.95;8.68;;;;;;;-4.11;56.09;100480.25;5031538;28;20166;-83
2022/01/25 07:56:54;;;;;;;23.80;8.10;;;;;;;-3.15;55.41;100606.16;5032043;28;20231;-83
2022/01/25 07:59:20;;;;;;;39.07;13.97;;;;;;;-2.62;53.74;100676.75;5032575;28;20228;-84
2022/01/25 08:01:46;;;;;;;36.53;13.23;;;;;;;-4.22;53.59;100381.72;5032933;28;20185;-83
2022/01/25 08:04:14;;;;;;;25.13;10.30;;;;;;;-2.84;53.40;100608.09;5031817;28;20170;-83
2022/01/25 08:06:40;;;;;;;39.28;15.20;;;;;;;-4.24;52.82;100368.31;5031791;28;20570;-83
2022/01/25 08:09:07;;;;;;;27.07;11.47;;;;;;;-2.25;50.86;100675.25;5031907;28;20200;-83
2022/01/25 08:11:33;;;;;;;22.00;9.27;;;;;;;-5.20;51.83;100189.88;4994389;28;20802;-83
2022/01/25 08:14:12;;;;;;;25.67;10.13;;;;;;;-3.40;51.54;100509.97;5012749;28;20229;-82
2022/01/25 08:16:40;;;;;;;14.82;7.70;;;;;;;-2.49;50.95;100665.94;4994517;28;20165;-82
2022/01/25 08:19:05;;;;;;;20.13;9.00;;;;;;;-3.81;50.38;100394.78;5011960;28;20225;-83
2022/01/25 08:21:31;;;;;;;17.93;8.13;;;;;;;-4.30;49.99;100326.47;5011506;28;20175;-82
2022/01/25 08:23:56;;;;;;;18.00;8.23;;;;;;;-4.24;49.88;100243.16;5011550;28;20228;-83
2022/01/25 08:26:21;;;;;;;35.03;13.87;;;;;;;-1.84;49.73;100667.53;5011513;28;20167;-82
2022/01/25 08:28:47;;;;;;;39.03;15.97;;;;;;;-2.92;49.06;100353.69;5012020;28;20618;-81
2022/01/25 08:31:12;;;;;;;27.73;12.77;;;;;;;-2.09;48.71;100487.78;5012347;28;20635;-82
2022/01/25 08:33:39;;;;;;;31.67;14.10;;;;;;;-2.35;48.06;100451.78;5012029;28;20231;-84
2022/01/25 08:36:05;;;;;;;33.97;15.60;;;;;;;-1.18;48.61;100643.38;5011961;28;20529;-83
2022/01/25 08:38:30;;;;;;;23.40;11.33;;;;;;;-2.83;48.77;100391.88;5011740;28;20186;-82
2022/01/25 08:40:56;;;;;;;17.83;8.43;;;;;;;-2.66;49.57;100496.19;4999464;28;20235;-81
2022/01/25 08:43:22;;;;;;;19.23;10.33;;;;;;;-1.91;48.46;100497.22;4983272;28;20242;-83
2022/01/25 08:45:47;;;;;;;32.97;13.90;;;;;;;-4.36;49.36;100088.56;5024895;28;20174;-83
2022/01/25 08:48:12;;;;;;;21.43;9.20;;;;;;;-3.57;49.36;100287.81;5030866;28;20452;-83
2022/01/25 08:50:38;;;;;;;22.87;8.80;;;;;;;-4.12;49.57;100218.06;5033479;28;20166;-82
2022/01/25 08:53:03;;;;;;;29.40;13.73;;;;;;;-1.04;49.58;100638.31;5014630;28;20174;-84
2022/01/25 08:55:29;;;;;;;17.80;8.23;;;;;;;-1.62;48.49;100494.53;5032804;28;20166;-82
2022/01/25 08:57:54;;;;;;;21.47;8.40;;;;;;;-1.25;47.37;100570.66;5032106;28;20548;-83
2022/01/25 09:00:19;;;;;;;21.30;9.73;;;;;;;-1.67;48.72;100516.38;5010818;28;20197;-81
2022/01/25 09:02:45;;;;;;;50.43;20.10;;;;;;;-0.86;48.05;100546.72;5035301;28;20177;-83
2022/01/25 09:05:12;;;;;;;45.17;18.57;;;;;;;-0.04;46.95;100612.59;5047798;28;20190;-82
2022/01/25 09:07:37;;;;;;;33.53;15.63;;;;;;;-0.69;47.43;100539.41;5042418;28;20201;-81
2022/01/25 09:10:04;;;;;;;25.57;10.43;;;;;;;-0.34;46.83;100601.94;5053776;28;20206;-82
2022/01/25 09:12:29;;;;;;;23.23;9.10;;;;;;;-0.71;46.71;100607.09;5039487;28;20201;-82
2022/01/25 09:14:55;;;;;;;23.40;8.63;;;;;;;-1.46;45.97;100339.06;5038448;28;20166;-81
2022/01/25 09:17:20;;;;;;;30.10;10.50;;;;;;;-1.49;46.09;100390.88;5019519;28;20170;-82
2022/01/25 09:19:45;;;;;;;19.80;8.70;;;;;;;-2.27;46.90;100303.84;5036324;28;20170;-82
2022/01/25 09:22:11;;;;;;;22.80;10.00;;;;;;;-1.57;47.06;100434.75;5037020;28;20166;-82
2022/01/25 09:24:39;;;;;;;37.30;15.77;;;;;;;-0.31;46.46;100535.09;5038372;28;20204;-83
2022/01/25 09:27:07;;;;;;;21.83;9.50;;;;;;;-0.37;45.87;100581.69;5036627;28;20229;-83
2022/01/25 09:29:33;;;;;;;22.48;11.00;;;;;;;-1.02;46.42;100501.09;5037715;28;20190;-84
2022/01/25 09:31:58;;;;;;;32.57;12.47;;;;;;;-0.17;45.54;100483.53;5037084;28;20173;-82
2022/01/25 09:34:25;;;;;;;36.20;13.97;;;;;;;-0.21;44.98;100507.94;5036923;28;20352;-83
2022/01/25 09:36:52;;;;;;;30.63;10.85;;;;;;;-0.06;45.50;100559.28;5036806;28;20630;-83
2022/01/25 09:39:18;;;;;;;36.65;14.82;;;;;;;0.15;45.62;100566.47;5038640;28;20186;-82
2022/01/25 09:41:43;;;;;;;46.67;16.40;;;;;;;-0.10;45.13;100510.81;5036095;28;20196;-84
2022/01/25 09:44:09;;;;;;;27.37;11.20;;;;;;;-1.25;44.45;100358.66;5037203;28;20170;-84
2022/01/25 09:46:34;;;;;;;22.40;10.60;;;;;;;-1.24;45.66;100383.66;5039533;28;20177;-85
2022/01/25 09:49:00;;;;;;;22.13;10.33;;;;;;;-2.62;44.96;100012.63;5043785;28;20197;-84
2022/01/25 09:51:26;;;;;;;19.87;8.57;;;;;;;-1.90;44.65;100158.22;5024966;28;20253;-84
2022/01/25 09:53:52;;;;;;;19.80;8.32;;;;;;;-3.41;44.00;99887.06;5042557;28;20192;-84
2022/01/25 09:56:17;;;;;;;21.83;11.10;;;;;;;-1.22;43.86;100209.97;5041098;28;20214;-84
2022/01/25 09:58:44;;;;;;;38.83;17.03;;;;;;;-3.33;43.73;99894.56;5036436;28;20197;-83
2022/01/25 10:01:11;;;;;;;30.55;14.05;;;;;;;-0.17;43.67;100398.06;5039321;28;20158;-83
2022/01/25 10:03:39;;;;;;;21.73;10.00;;;;;;;0.60;43.50;100518.78;5027364;28;20193;-84
2022/01/25 10:06:15;;;;;;;24.30;11.25;;;;;;;0.33;43.30;100463.72;5027825;28;20213;-84
2022/01/25 10:08:41;;;;;;;48.85;18.90;;;;;;;0.78;42.40;100439.13;5041917;28;20216;-85
2022/01/25 10:11:09;;;;;;;24.30;10.80;;;;;;;-0.28;41.53;100281.66;5039758;28;20174;-85
2022/01/25 10:13:36;;;;;;;20.58;7.93;;;;;;;0.53;41.53;100532.97;5040238;28;20173;-85
2022/01/25 10:16:02;;;;;;;13.68;7.20;;;;;;;0.31;41.32;100516.59;5012173;28;20236;-83
2022/01/25 10:18:45;;;;;;;18.87;8.37;;;;;;;0.51;41.88;100514.50;5040658;28;20166;-84
2022/01/25 10:21:23;;;;;;;18.40;8.73;;;;;;;-0.43;41.40;100372.13;5023485;28;20166;-84
2022/01/25 10:24:17;;;;;;;17.15;8.05;;;;;;;0.74;40.53;100489.41;5041479;28;20236;-85
2022/01/25 10:27:03;;;;;;;24.08;9.93;;;;;;;0.84;40.52;100489.56;5039349;28;20166;-84
2022/01/25 10:29:34;;;;;;;41.10;15.63;;;;;;;1.50;39.19;100475.28;5021198;28;20205;-84
2022/01/25 10:32:05;;;;;;;17.70;9.20;;;;;;;0.11;39.08;100380.16;5016970;28;20182;-85
2022/01/25 10:34:35;;;;;;;19.48;8.65;;;;;;;-0.11;39.84;100306.63;5043358;28;20272;-85
2022/01/25 10:37:09;;;;;;;23.83;10.70;;;;;;;0.65;40.26;100418.72;5045740;28;20218;-84
2022/01/25 10:39:39;;;;;;;20.15;10.80;;;;;;;-0.49;40.08;100188.38;5043879;28;20170;-85
2022/01/25 10:42:09;;;;;;;45.03;19.08;;;;;;;-1.65;40.15;99968.94;5044266;28;20185;-85
2022/01/25 10:44:58;;;;;;;20.83;9.65;;;;;;;0.78;39.54;100469.03;5041182;28;20180;-84
2022/01/25 10:47:45;;;;;;;23.08;9.50;;;;;;;0.04;39.83;100265.81;5039921;28;20154;-85
2022/01/25 10:50:16;;;;;;;23.58;9.57;;;;;;;0.78;38.99;100336.94;5047042;28;20190;-85
2022/01/25 10:52:42;;;;;;;24.08;10.70;;;;;;;0.14;39.10;100285.88;5042859;28;20163;-85
2022/01/25 10:55:08;;;;;;;25.30;12.30;;;;;;;-2.21;38.56;99870.59;5042265;28;20178;-85
2022/01/25 10:57:34;;;;;;;19.47;11.37;;;;;;;0.73;38.87;100368.03;5041691;28;20874;-84
2022/01/25 11:00:06;;;;;;;18.00;8.57;;;;;;;-0.05;38.54;100180.28;5019606;28;20412;-82
2022/01/25 11:02:34;;;;;;;22.05;8.82;;;;;;;-0.48;38.77;100231.53;5037181;28;20166;-84
2022/01/25 11:05:08;;;;;;;36.67;15.83;;;;;;;-0.09;39.07;100135.94;5037917;28;20189;-84
2022/01/25 11:07:39;;;;;;;24.20;10.20;;;;;;;0.51;38.52;100243.91;5024197;28;20408;-83
2022/01/25 11:10:06;;;;;;;17.00;7.73;;;;;;;-0.10;37.99;100214.69;5036377;28;20484;-84
2022/01/25 11:12:37;;;;;;;15.57;7.15;;;;;;;0.94;38.60;100428.31;5039056;28;20888;-85
2022/01/25 11:15:04;;;;;;;17.10;7.17;;;;;;;-0.31;39.17;100170.31;5026643;28;20586;-84
2022/01/25 11:17:32;;;;;;;16.35;7.43;;;;;;;0.91;38.71;100399.69;5038744;28;20502;-85
2022/01/25 11:19:59;;;;;;;29.53;12.30;;;;;;;1.47;38.86;100408.53;5022391;28;20169;-85
2022/01/25 11:22:26;;;;;;;24.55;11.05;;;;;;;1.56;37.10;100406.91;5039338;28;20401;-83
2022/01/25 11:24:55;;;;;;;13.57;7.57;;;;;;;1.62;36.15;100399.97;5048013;28;20176;-83
2022/01/25 11:27:23;;;;;;;31.73;15.33;;;;;;;1.73;36.18;100379.41;5053697;28;20524;-84
2022/01/25 11:29:51;;;;;;;56.07;25.33;;;;;;;2.08;35.98;100400.16;5037952;28;20452;-84
2022/01/25 11:32:23;;;;;;;20.43;8.70;;;;;;;0.64;36.75;100227.63;5036908;28;20976;-85
2022/01/25 11:34:50;;;;;;;24.77;11.17;;;;;;;-0.50;35.99;100015.06;5037939;28;20448;-85
2022/01/25 11:37:16;;;;;;;23.63;10.30;;;;;;;1.32;35.63;100282.34;5041494;28;20401;-83
2022/01/25 11:39:45;;;;;;;59.20;24.93;;;;;;;-0.84;36.04;99889.16;5040576;28;20959;-84
2022/01/25 11:42:17;;;;;;;41.53;17.07;;;;;;;0.72;36.85;100142.91;5019091;28;20180;-84
2022/01/25 11:44:57;;;;;;;21.67;9.77;;;;;;;1.85;35.30;100378.78;5036541;28;20456;-85
2022/01/25 11:47:30;;;;;;;23.03;9.23;;;;;;;0.54;35.89;100214.31;5039163;28;20405;-84
2022/01/25 11:49:58;;;;;;;32.97;10.97;;;;;;;0.87;36.78;100248.13;5023735;28;20475;-84
2022/01/25 11:52:26;;;;;;;36.50;15.97;;;;;;;-0.56;37.16;100026.03;5039187;28;20433;-84
2022/01/25 11:55:28;;;;;;;43.43;17.93;;;;;;;1.39;36.17;100288.78;5037522;28;20756;-83
2022/01/25 11:58:07;;;;;;;33.57;13.87;;;;;;;1.72;36.25;100392.63;5044000;28;20904;-84
2022/01/25 12:00:38;;;;;;;27.17;11.87;;;;;;;1.69;36.01;100366.50;5038885;28;20471;-84
2022/01/25 12:03:20;;;;;;;43.30;17.27;;;;;;;2.20;36.13;100357.91;5036277;28;20413;-84
2022/01/25 12:06:01;;;;;;;45.03;20.00;;;;;;;1.55;35.57;100222.09;5034049;28;20404;-85
2022/01/25 12:08:41;;;;;;;44.10;20.07;;;;;;;2.18;36.26;100326.94;5019160;28;20463;-84
2022/01/25 12:11:40;;;;;;;24.50;11.20;;;;;;;2.05;36.03;100349.03;5036243;28;20403;-85
2022/01/25 12:14:41;;;;;;;37.40;15.97;;;;;;;1.99;35.79;100339.38;5037865;28;20417;-84
2022/01/25 12:17:07;;;;;;;20.57;9.70;;;;;;;1.71;36.14;100340.94;4951880;28;20467;-84
2022/01/25 12:19:58;;;;;;;20.10;8.73;;;;;;;1.63;35.84;100336.84;4975774;28;20458;-84
2022/01/25 12:22:38;;;;;;;104.33;33.73;;;;;;;1.61;36.67;100338.34;4974943;28;20291;-84
2022/01/25 12:27:59;;;;;;;188.57;60.87;;;;;;;1.94;35.77;100338.09;4915110;29;20434;-84
2022/01/25 12:30:24;;;;;;;45.23;15.23;;;;;;;1.62;35.58;100335.09;4917743;29;20840;-83
2022/01/25 12:33:02;;;;;;;62.50;21.00;;;;;;;1.66;35.58;100336.25;4916701;29;20458;-84
2022/01/25 12:35:44;;;;;;;29.20;11.27;;;;;;;1.60;35.23;100316.63;4933384;29;20216;-83
2022/01/25 12:38:16;;;;;;;16.87;7.57;;;;;;;1.29;35.02;100222.22;4935232;29;20417;-83
2022/01/25 12:40:49;;;;;;;21.50;9.70;;;;;;;1.88;35.62;100319.16;4935895;29;20436;-84
2022/01/25 12:43:35;;;;;;;18.83;8.60;;;;;;;1.88;34.76;100311.66;4938036;29;20412;-82
2022/01/25 12:46:09;;;;;;;49.77;20.30;;;;;;;2.17;35.75;100317.72;4939391;29;20433;-83
2022/01/25 12:48:59;;;;;;;34.33;14.63;;;;;;;2.16;34.58;100309.34;4938812;29;20532;-84
2022/01/25 12:51:27;;;;;;;49.40;21.20;;;;;;;2.27;35.57;100305.31;4881884;29;20455;-82
2022/01/25 12:53:55;;;;;;;37.87;17.17;;;;;;;1.91;35.50;100279.50;4877761;29;20439;-84
2022/01/25 12:56:29;;;;;;;24.20;9.87;;;;;;;2.06;34.93;100280.91;4862667;29;20436;-83
2022/01/25 12:58:58;;;;;;;54.57;25.27;;;;;;;1.46;35.17;100102.41;4863351;29;20476;-84
2022/01/25 13:01:26;;;;;;;52.90;22.87;;;;;;;0.97;35.48;100048.84;4861642;29;20420;-83
2022/01/25 13:04:03;;;;;;;21.77;9.53;;;;;;;1.38;34.77;100178.16;4870072;29;20433;-84
2022/01/25 13:06:31;;;;;;;20.83;9.53;;;;;;;1.70;35.15;100249.34;4918871;29;20422;-84
2022/01/25 13:09:11;;;;;;;26.13;10.90;;;;;;;1.66;36.02;100236.44;4918197;29;20469;-83
2022/01/25 13:17:14;;;;;;;70.13;26.37;;;;;;;2.17;35.23;100286.09;4927359;29;20464;-84
2022/01/25 13:19:48;;;;;;;17.87;7.30;;;;;;;0.64;34.15;99963.56;4936818;29;20549;-84
2022/01/25 13:22:18;;;;;;;13.77;7.10;;;;;;;0.35;34.21;100030.63;4935875;29;20444;-84
2022/01/25 13:24:59;;;;;;;17.50;7.83;;;;;;;0.67;33.85;100041.06;4935822;29;20429;-83